sensor_id;sensor_type;location;lat;lon;timestamp;pressure;altitude;pressure_sealevel;temperature;humidity
70982;BME280;58640;51.320;9.456;2023-07-13T00:00:27;99179.09;;;19.76;56.49
70982;BME280;58640;51.320;9.456;2023-07-13T00:02:52;99177.75;;;19.79;57.93
70982;BME280;58640;51.320;9.456;2023-07-13T00:05:21;99175.88;;;19.79;58.35
70982;BME280;58640;51.320;9.456;2023-07-13T00:07:47;99179.19;;;19.81;59.37
70982;BME280;58640;51.320;9.456;2023-07-13T00:10:13;99179.06;;;19.88;57.96
70982;BME280;58640;51.320;9.456;2023-07-13T00:12:39;99176.81;;;19.85;58.04
70982;BME280;58640;51.320;9.456;2023-07-13T00:15:10;99182.16;;;19.80;58.08
70982;BME280;58640;51.320;9.456;2023-07-13T00:17:37;99186.31;;;19.82;58.46
70982;BME280;58640;51.320;9.456;2023-07-13T00:20:04;99189.88;;;19.83;58.81
70982;BME280;58640;51.320;9.456;2023-07-13T00:22:30;99187.28;;;19.76;60.04
70982;BME280;58640;51.320;9.456;2023-07-13T00:24:55;99188.25;;;19.70;60.11
70982;BME280;58640;51.320;9.456;2023-07-13T00:27:22;99189.03;;;19.71;59.56
70982;BME280;58640;51.320;9.456;2023-07-13T00:29:47;99187.78;;;19.62;60.31
70982;BME280;58640;51.320;9.456;2023-07-13T00:32:13;99187.66;;;19.57;59.75
70982;BME280;58640;51.320;9.456;2023-07-13T00:34:38;99179.94;;;19.54;60.59
70982;BME280;58640;51.320;9.456;2023-07-13T00:37:05;99177.59;;;19.46;62.22
70982;BME280;58640;51.320;9.456;2023-07-13T00:39:33;99180.31;;;19.46;61.15
70982;BME280;58640;51.320;9.456;2023-07-13T00:41:58;99180.56;;;19.44;60.70
70982;BME280;58640;51.320;9.456;2023-07-13T00:44:24;99181.88;;;19.42;60.85
70982;BME280;58640;51.320;9.456;2023-07-13T00:46:50;99185.78;;;19.34;61.34
70982;BME280;58640;51.320;9.456;2023-07-13T00:49:20;99183.88;;;19.35;61.12
70982;BME280;58640;51.320;9.456;2023-07-13T00:51:50;99183.28;;;19.33;62.43
70982;BME280;58640;51.320;9.456;2023-07-13T00:54:33;99182.13;;;19.29;61.98
70982;BME280;58640;51.320;9.456;2023-07-13T00:57:02;99187.56;;;19.29;62.47
70982;BME280;58640;51.320;9.456;2023-07-13T00:59:29;99184.22;;;19.27;62.96
70982;BME280;58640;51.320;9.456;2023-07-13T01:01:56;99178.75;;;19.27;62.86
70982;BME280;58640;51.320;9.456;2023-07-13T01:04:24;99181.47;;;19.27;61.92
70982;BME280;58640;51.320;9.456;2023-07-13T01:06:50;99180.41;;;19.28;61.87
70982;BME280;58640;51.320;9.456;2023-07-13T01:09:15;99188.63;;;19.39;61.40
70982;BME280;58640;51.320;9.456;2023-07-13T01:11:41;99194.06;;;19.39;61.66
70982;BME280;58640;51.320;9.456;2023-07-13T01:14:08;99189.47;;;19.40;62.27
70982;BME280;58640;51.320;9.456;2023-07-13T01:16:35;99191.81;;;19.36;62.47
70982;BME280;58640;51.320;9.456;2023-07-13T01:19:01;99189.81;;;19.32;61.66
70982;BME280;58640;51.320;9.456;2023-07-13T01:21:31;99187.69;;;19.34;62.82
70982;BME280;58640;51.320;9.456;2023-07-13T01:23:57;99202.13;;;19.46;61.26
70982;BME280;58640;51.320;9.456;2023-07-13T01:26:23;99191.59;;;19.38;61.86
70982;BME280;58640;51.320;9.456;2023-07-13T01:28:48;99204.50;;;19.31;61.66
70982;BME280;58640;51.320;9.456;2023-07-13T01:31:14;99197.63;;;19.28;62.37
70982;BME280;58640;51.320;9.456;2023-07-13T01:33:40;99196.44;;;19.24;62.63
70982;BME280;58640;51.320;9.456;2023-07-13T01:36:10;99189.66;;;19.15;62.66
70982;BME280;58640;51.320;9.456;2023-07-13T01:38:36;99192.59;;;19.02;62.93
70982;BME280;58640;51.320;9.456;2023-07-13T01:41:02;99195.31;;;19.02;63.06
70982;BME280;58640;51.320;9.456;2023-07-13T01:43:28;99194.63;;;18.95;63.31
70982;BME280;58640;51.320;9.456;2023-07-13T01:45:54;99194.50;;;18.90;63.17
70982;BME280;58640;51.320;9.456;2023-07-13T01:48:19;99195.69;;;18.82;63.70
70982;BME280;58640;51.320;9.456;2023-07-13T01:50:45;99186.53;;;18.77;64.41
70982;BME280;58640;51.320;9.456;2023-07-13T01:53:11;99187.13;;;18.79;64.20
70982;BME280;58640;51.320;9.456;2023-07-13T01:55:36;99190.34;;;18.76;65.14
70982;BME280;58640;51.320;9.456;2023-07-13T01:58:03;99190.81;;;18.73;64.39
70982;BME280;58640;51.320;9.456;2023-07-13T02:00:28;99193.75;;;18.71;64.52
70982;BME280;58640;51.320;9.456;2023-07-13T02:02:54;99191.47;;;18.68;65.13
70982;BME280;58640;51.320;9.456;2023-07-13T02:05:19;99199.88;;;18.67;65.78
70982;BME280;58640;51.320;9.456;2023-07-13T02:07:45;99194.91;;;18.64;66.84
70982;BME280;58640;51.320;9.456;2023-07-13T02:10:11;99197.06;;;18.62;66.84
70982;BME280;58640;51.320;9.456;2023-07-13T02:12:37;99193.97;;;18.58;66.71
70982;BME280;58640;51.320;9.456;2023-07-13T02:15:03;99189.31;;;18.59;67.13
70982;BME280;58640;51.320;9.456;2023-07-13T02:17:29;99192.50;;;18.56;68.45
70982;BME280;58640;51.320;9.456;2023-07-13T02:19:54;99192.06;;;18.59;67.26
70982;BME280;58640;51.320;9.456;2023-07-13T02:22:20;99189.78;;;18.56;68.22
70982;BME280;58640;51.320;9.456;2023-07-13T02:24:46;99185.41;;;18.55;67.71
70982;BME280;58640;51.320;9.456;2023-07-13T02:27:11;99181.38;;;18.46;69.75
70982;BME280;58640;51.320;9.456;2023-07-13T02:29:36;99177.59;;;18.47;68.93
70982;BME280;58640;51.320;9.456;2023-07-13T02:32:02;99176.22;;;18.38;70.64
70982;BME280;58640;51.320;9.456;2023-07-13T02:34:28;99175.34;;;18.26;70.17
70982;BME280;58640;51.320;9.456;2023-07-13T02:36:53;99165.00;;;18.16;69.94
70982;BME280;58640;51.320;9.456;2023-07-13T02:39:18;99170.06;;;18.13;69.90
70982;BME280;58640;51.320;9.456;2023-07-13T02:41:44;99163.75;;;18.01;70.86
70982;BME280;58640;51.320;9.456;2023-07-13T02:44:09;99163.16;;;17.99;71.10
70982;BME280;58640;51.320;9.456;2023-07-13T02:46:37;99161.59;;;17.91;72.15
70982;BME280;58640;51.320;9.456;2023-07-13T02:49:03;99153.66;;;17.90;71.31
70982;BME280;58640;51.320;9.456;2023-07-13T02:51:29;99164.69;;;17.77;71.90
70982;BME280;58640;51.320;9.456;2023-07-13T02:53:54;99163.34;;;17.68;71.49
70982;BME280;58640;51.320;9.456;2023-07-13T02:56:28;99171.75;;;17.66;71.79
70982;BME280;58640;51.320;9.456;2023-07-13T02:58:53;99165.09;;;17.62;71.92
70982;BME280;58640;51.320;9.456;2023-07-13T03:01:20;99169.34;;;17.58;70.89
70982;BME280;58640;51.320;9.456;2023-07-13T03:03:47;99165.16;;;17.56;70.70
70982;BME280;58640;51.320;9.456;2023-07-13T03:06:13;99166.84;;;17.57;70.35
70982;BME280;58640;51.320;9.456;2023-07-13T03:08:39;99167.06;;;17.55;70.37
70982;BME280;58640;51.320;9.456;2023-07-13T03:11:09;99168.25;;;17.59;69.11
70982;BME280;58640;51.320;9.456;2023-07-13T03:13:36;99173.94;;;17.58;68.30
70982;BME280;58640;51.320;9.456;2023-07-13T03:16:01;99179.38;;;17.58;68.11
70982;BME280;58640;51.320;9.456;2023-07-13T03:18:27;99173.94;;;17.58;66.00
70982;BME280;58640;51.320;9.456;2023-07-13T03:20:53;99186.00;;;17.62;64.82
70982;BME280;58640;51.320;9.456;2023-07-13T03:23:20;99195.63;;;17.64;64.70
70982;BME280;58640;51.320;9.456;2023-07-13T03:25:46;99197.03;;;17.67;65.13
70982;BME280;58640;51.320;9.456;2023-07-13T03:28:12;99197.03;;;17.67;64.91
70982;BME280;58640;51.320;9.456;2023-07-13T03:30:37;99195.47;;;17.59;64.43
70982;BME280;58640;51.320;9.456;2023-07-13T03:33:03;99194.47;;;17.53;64.27
70982;BME280;58640;51.320;9.456;2023-07-13T03:35:28;99204.75;;;17.52;64.74
70982;BME280;58640;51.320;9.456;2023-07-13T03:37:54;99205.78;;;17.50;65.95
70982;BME280;58640;51.320;9.456;2023-07-13T03:40:20;99204.38;;;17.48;64.62
70982;BME280;58640;51.320;9.456;2023-07-13T03:42:46;99210.88;;;17.47;64.30
70982;BME280;58640;51.320;9.456;2023-07-13T03:45:11;99215.06;;;17.43;65.35
70982;BME280;58640;51.320;9.456;2023-07-13T03:47:37;99220.72;;;17.41;66.17
70982;BME280;58640;51.320;9.456;2023-07-13T03:50:02;99219.94;;;17.34;67.70
70982;BME280;58640;51.320;9.456;2023-07-13T03:52:28;99225.78;;;17.38;67.13
70982;BME280;58640;51.320;9.456;2023-07-13T03:54:53;99229.94;;;17.40;67.76
70982;BME280;58640;51.320;9.456;2023-07-13T03:57:19;99240.59;;;17.42;67.91
70982;BME280;58640;51.320;9.456;2023-07-13T03:59:44;99239.13;;;17.39;68.38
70982;BME280;58640;51.320;9.456;2023-07-13T04:02:10;99235.84;;;17.37;69.61
70982;BME280;58640;51.320;9.456;2023-07-13T04:04:35;99225.59;;;17.33;69.34
70982;BME280;58640;51.320;9.456;2023-07-13T04:07:01;99235.28;;;17.29;69.83
70982;BME280;58640;51.320;9.456;2023-07-13T04:09:26;99236.63;;;17.20;70.08
70982;BME280;58640;51.320;9.456;2023-07-13T04:11:52;99237.22;;;17.22;70.75
70982;BME280;58640;51.320;9.456;2023-07-13T04:14:17;99240.16;;;17.20;69.84
70982;BME280;58640;51.320;9.456;2023-07-13T04:16:42;99246.44;;;17.21;70.11
70982;BME280;58640;51.320;9.456;2023-07-13T04:19:09;99252.53;;;17.16;69.66
70982;BME280;58640;51.320;9.456;2023-07-13T04:21:36;99252.75;;;17.15;70.24
70982;BME280;58640;51.320;9.456;2023-07-13T04:24:01;99257.59;;;17.13;70.93
70982;BME280;58640;51.320;9.456;2023-07-13T04:26:28;99252.16;;;17.13;70.05
70982;BME280;58640;51.320;9.456;2023-07-13T04:28:54;99262.00;;;17.07;70.17
70982;BME280;58640;51.320;9.456;2023-07-13T04:31:20;99259.38;;;17.01;70.02
70982;BME280;58640;51.320;9.456;2023-07-13T04:33:46;99261.06;;;16.95;71.55
70982;BME280;58640;51.320;9.456;2023-07-13T04:36:12;99267.88;;;17.04;71.13
70982;BME280;58640;51.320;9.456;2023-07-13T04:38:37;99270.66;;;16.98;71.66
70982;BME280;58640;51.320;9.456;2023-07-13T04:41:05;99268.78;;;16.98;70.86
70982;BME280;58640;51.320;9.456;2023-07-13T04:43:32;99264.72;;;16.83;71.64
70982;BME280;58640;51.320;9.456;2023-07-13T04:46:05;99266.38;;;16.84;71.98
70982;BME280;58640;51.320;9.456;2023-07-13T04:48:30;99265.56;;;16.83;72.52
70982;BME280;58640;51.320;9.456;2023-07-13T04:50:56;99267.66;;;16.81;73.27
70982;BME280;58640;51.320;9.456;2023-07-13T04:53:22;99275.53;;;16.89;72.59
70982;BME280;58640;51.320;9.456;2023-07-13T04:55:47;99272.78;;;16.96;73.02
70982;BME280;58640;51.320;9.456;2023-07-13T04:58:13;99274.22;;;16.98;72.34
70982;BME280;58640;51.320;9.456;2023-07-13T05:00:39;99266.50;;;16.95;72.72
70982;BME280;58640;51.320;9.456;2023-07-13T05:03:05;99271.03;;;17.01;72.71
70982;BME280;58640;51.320;9.456;2023-07-13T05:05:30;99277.28;;;17.08;72.76
70982;BME280;58640;51.320;9.456;2023-07-13T05:07:56;99270.94;;;17.14;72.25
70982;BME280;58640;51.320;9.456;2023-07-13T05:10:22;99276.91;;;17.29;71.14
70982;BME280;58640;51.320;9.456;2023-07-13T05:12:47;99268.66;;;17.36;71.25
70982;BME280;58640;51.320;9.456;2023-07-13T05:15:13;99275.47;;;17.52;70.04
70982;BME280;58640;51.320;9.456;2023-07-13T05:17:38;99284.53;;;17.64;69.36
70982;BME280;58640;51.320;9.456;2023-07-13T05:20:07;99287.34;;;17.75;70.43
70982;BME280;58640;51.320;9.456;2023-07-13T05:22:33;99276.66;;;17.98;69.04
70982;BME280;58640;51.320;9.456;2023-07-13T05:25:01;99281.69;;;18.13;68.45
70982;BME280;58640;51.320;9.456;2023-07-13T05:27:26;99274.06;;;18.39;67.77
70982;BME280;58640;51.320;9.456;2023-07-13T05:29:51;99265.84;;;18.57;66.26
70982;BME280;58640;51.320;9.456;2023-07-13T05:32:18;99279.56;;;18.80;65.40
70982;BME280;58640;51.320;9.456;2023-07-13T05:34:43;99281.00;;;18.94;65.39
70982;BME280;58640;51.320;9.456;2023-07-13T05:37:09;99281.88;;;19.07;64.62
70982;BME280;58640;51.320;9.456;2023-07-13T05:39:34;99278.91;;;19.20;64.30
70982;BME280;58640;51.320;9.456;2023-07-13T05:41:59;99280.66;;;19.44;63.23
70982;BME280;58640;51.320;9.456;2023-07-13T05:44:25;99279.38;;;19.58;62.35
70982;BME280;58640;51.320;9.456;2023-07-13T05:46:50;99280.91;;;19.77;61.64
70982;BME280;58640;51.320;9.456;2023-07-13T05:49:15;99282.97;;;20.09;60.08
70982;BME280;58640;51.320;9.456;2023-07-13T05:51:41;99281.44;;;20.25;59.48
70982;BME280;58640;51.320;9.456;2023-07-13T05:54:06;99281.44;;;20.25;58.58
70982;BME280;58640;51.320;9.456;2023-07-13T05:56:32;99283.47;;;20.29;57.21
70982;BME280;58640;51.320;9.456;2023-07-13T05:58:57;99286.63;;;20.38;56.99
70982;BME280;58640;51.320;9.456;2023-07-13T06:01:22;99282.50;;;20.64;57.98
70982;BME280;58640;51.320;9.456;2023-07-13T06:03:49;99283.59;;;20.79;56.93
70982;BME280;58640;51.320;9.456;2023-07-13T06:06:15;99285.13;;;21.15;54.47
70982;BME280;58640;51.320;9.456;2023-07-13T06:08:40;99283.78;;;21.34;54.33
70982;BME280;58640;51.320;9.456;2023-07-13T06:11:15;99274.91;;;21.60;53.96
70982;BME280;58640;51.320;9.456;2023-07-13T06:13:41;99279.53;;;21.93;51.94
70982;BME280;58640;51.320;9.456;2023-07-13T06:16:10;99285.25;;;22.51;50.11
70982;BME280;58640;51.320;9.456;2023-07-13T06:18:36;99287.47;;;23.02;49.66
70982;BME280;58640;51.320;9.456;2023-07-13T06:21:18;99296.03;;;23.32;46.25
70982;BME280;58640;51.320;9.456;2023-07-13T06:24:13;99285.53;;;22.76;47.02
70982;BME280;58640;51.320;9.456;2023-07-13T06:31:56;99309.00;;;22.24;50.50
70982;BME280;58640;51.320;9.456;2023-07-13T06:35:08;99305.34;;;22.18;49.69
70982;BME280;58640;51.320;9.456;2023-07-13T06:40:09;99320.69;;;22.79;47.78
70982;BME280;58640;51.320;9.456;2023-07-13T06:42:37;99312.50;;;23.10;47.52
70982;BME280;58640;51.320;9.456;2023-07-13T06:45:04;99313.59;;;23.36;46.39
70982;BME280;58640;51.320;9.456;2023-07-13T06:47:29;99317.06;;;23.53;45.18
70982;BME280;58640;51.320;9.456;2023-07-13T06:49:55;99306.16;;;23.63;44.73
70982;BME280;58640;51.320;9.456;2023-07-13T06:52:20;99307.06;;;23.74;46.44
70982;BME280;58640;51.320;9.456;2023-07-13T06:54:45;99309.91;;;23.84;45.38
70982;BME280;58640;51.320;9.456;2023-07-13T06:57:11;99314.63;;;24.40;42.85
70982;BME280;58640;51.320;9.456;2023-07-13T06:59:39;99315.09;;;24.84;40.04
70982;BME280;58640;51.320;9.456;2023-07-13T07:02:04;99307.56;;;24.54;41.28
70982;BME280;58640;51.320;9.456;2023-07-13T07:04:30;99301.50;;;24.52;42.43
70982;BME280;58640;51.320;9.456;2023-07-13T07:06:55;99304.34;;;24.72;43.04
70982;BME280;58640;51.320;9.456;2023-07-13T07:09:21;99299.81;;;25.38;39.58
70982;BME280;58640;51.320;9.456;2023-07-13T07:11:46;99308.91;;;25.48;40.77
70982;BME280;58640;51.320;9.456;2023-07-13T07:14:12;99301.75;;;25.42;39.51
70982;BME280;58640;51.320;9.456;2023-07-13T07:16:44;99306.16;;;25.53;40.21
70982;BME280;58640;51.320;9.456;2023-07-13T07:19:10;99305.00;;;25.09;39.96
70982;BME280;58640;51.320;9.456;2023-07-13T07:21:40;99304.66;;;24.96;41.13
70982;BME280;58640;51.320;9.456;2023-07-13T07:24:06;99299.25;;;25.36;40.40
70982;BME280;58640;51.320;9.456;2023-07-13T07:26:36;99310.22;;;25.06;41.86
70982;BME280;58640;51.320;9.456;2023-07-13T07:29:03;99307.00;;;25.34;42.44
70982;BME280;58640;51.320;9.456;2023-07-13T07:31:38;99304.22;;;25.79;41.08
70982;BME280;58640;51.320;9.456;2023-07-13T07:34:11;99306.34;;;26.22;38.14
70982;BME280;58640;51.320;9.456;2023-07-13T07:36:47;99310.25;;;25.96;39.04
70982;BME280;58640;51.320;9.456;2023-07-13T07:39:20;99311.06;;;25.97;38.73
70982;BME280;58640;51.320;9.456;2023-07-13T07:41:58;99312.44;;;26.09;39.00
70982;BME280;58640;51.320;9.456;2023-07-13T07:44:26;99316.25;;;26.28;38.98
70982;BME280;58640;51.320;9.456;2023-07-13T07:46:52;99314.81;;;26.51;39.21
70982;BME280;58640;51.320;9.456;2023-07-13T07:49:17;99317.81;;;26.59;39.32
70982;BME280;58640;51.320;9.456;2023-07-13T07:51:47;99309.81;;;26.63;39.27
70982;BME280;58640;51.320;9.456;2023-07-13T07:54:13;99307.84;;;26.63;38.83
70982;BME280;58640;51.320;9.456;2023-07-13T07:56:46;99318.41;;;26.46;38.90
70982;BME280;58640;51.320;9.456;2023-07-13T07:59:13;99319.88;;;26.92;37.44
70982;BME280;58640;51.320;9.456;2023-07-13T08:01:38;99313.38;;;26.73;39.88
70982;BME280;58640;51.320;9.456;2023-07-13T08:04:07;99310.53;;;26.88;38.46
70982;BME280;58640;51.320;9.456;2023-07-13T08:06:35;99315.91;;;26.60;38.55
70982;BME280;58640;51.320;9.456;2023-07-13T08:09:00;99314.91;;;26.26;39.75
70982;BME280;58640;51.320;9.456;2023-07-13T08:11:28;99314.41;;;26.14;40.28
70982;BME280;58640;51.320;9.456;2023-07-13T08:14:06;99314.34;;;26.29;38.98
70982;BME280;58640;51.320;9.456;2023-07-13T08:16:42;99317.94;;;26.24;40.92
70982;BME280;58640;51.320;9.456;2023-07-13T08:19:13;99317.16;;;25.58;42.49
70982;BME280;58640;51.320;9.456;2023-07-13T08:21:46;99308.09;;;25.53;40.00
70982;BME280;58640;51.320;9.456;2023-07-13T08:24:18;99308.91;;;25.63;43.71
70982;BME280;58640;51.320;9.456;2023-07-13T08:26:56;99308.34;;;25.76;42.73
70982;BME280;58640;51.320;9.456;2023-07-13T08:29:29;99302.00;;;25.96;37.88
70982;BME280;58640;51.320;9.456;2023-07-13T08:31:57;99307.28;;;25.62;41.72
70982;BME280;58640;51.320;9.456;2023-07-13T08:34:36;99296.47;;;25.21;40.29
70982;BME280;58640;51.320;9.456;2023-07-13T08:37:09;99313.47;;;24.88;41.01
70982;BME280;58640;51.320;9.456;2023-07-13T08:39:34;99315.06;;;24.69;40.62
70982;BME280;58640;51.320;9.456;2023-07-13T08:42:05;99309.56;;;24.17;42.63
70982;BME280;58640;51.320;9.456;2023-07-13T08:47:48;99304.25;;;24.00;43.65
70982;BME280;58640;51.320;9.456;2023-07-13T08:50:41;99317.47;;;24.08;40.95
70982;BME280;58640;51.320;9.456;2023-07-13T08:53:48;99314.94;;;24.48;41.45
70982;BME280;58640;51.320;9.456;2023-07-13T08:56:32;99320.00;;;24.67;40.49
70982;BME280;58640;51.320;9.456;2023-07-13T08:59:15;99314.34;;;24.41;39.70
70982;BME280;58640;51.320;9.456;2023-07-13T09:02:00;99308.84;;;24.41;40.48
70982;BME280;58640;51.320;9.456;2023-07-13T09:04:41;99314.19;;;24.11;41.63
70982;BME280;58640;51.320;9.456;2023-07-13T09:11:17;99319.47;;;24.18;38.85
70982;BME280;58640;51.320;9.456;2023-07-13T09:16:59;99318.44;;;24.96;38.74
70982;BME280;58640;51.320;9.456;2023-07-13T09:19:28;99317.34;;;25.07;38.19
70982;BME280;58640;51.320;9.456;2023-07-13T09:22:04;99323.94;;;25.01;37.42
70982;BME280;58640;51.320;9.456;2023-07-13T09:25:00;99316.00;;;25.14;37.81
70982;BME280;58640;51.320;9.456;2023-07-13T09:27:36;99320.66;;;25.04;37.72
70982;BME280;58640;51.320;9.456;2023-07-13T09:32:50;99313.44;;;24.73;36.80
70982;BME280;58640;51.320;9.456;2023-07-13T09:35:23;99311.13;;;24.60;39.48
70982;BME280;58640;51.320;9.456;2023-07-13T09:38:13;99319.22;;;24.24;39.74
70982;BME280;58640;51.320;9.456;2023-07-13T09:43:34;99320.28;;;24.13;38.92
70982;BME280;58640;51.320;9.456;2023-07-13T09:46:00;99318.56;;;24.02;40.63
70982;BME280;58640;51.320;9.456;2023-07-13T09:48:33;99325.16;;;24.01;39.98
70982;BME280;58640;51.320;9.456;2023-07-13T09:51:07;99318.81;;;24.01;37.98
70982;BME280;58640;51.320;9.456;2023-07-13T09:53:45;99323.59;;;23.79;39.66
70982;BME280;58640;51.320;9.456;2023-07-13T09:56:21;99315.63;;;23.77;40.87
70982;BME280;58640;51.320;9.456;2023-07-13T09:58:48;99325.34;;;23.95;40.47
70982;BME280;58640;51.320;9.456;2023-07-13T10:01:13;99322.31;;;23.91;41.03
70982;BME280;58640;51.320;9.456;2023-07-13T10:03:39;99327.41;;;24.14;39.16
70982;BME280;58640;51.320;9.456;2023-07-13T10:06:19;99330.47;;;24.18;38.98
70982;BME280;58640;51.320;9.456;2023-07-13T10:08:45;99323.41;;;23.95;42.57
70982;BME280;58640;51.320;9.456;2023-07-13T10:11:21;99329.47;;;24.39;39.47
70982;BME280;58640;51.320;9.456;2023-07-13T10:13:59;99324.44;;;24.78;38.97
70982;BME280;58640;51.320;9.456;2023-07-13T10:16:34;99325.06;;;25.05;38.78
70982;BME280;58640;51.320;9.456;2023-07-13T10:19:17;99325.31;;;24.93;40.11
70982;BME280;58640;51.320;9.456;2023-07-13T10:21:57;99334.88;;;24.71;38.00
70982;BME280;58640;51.320;9.456;2023-07-13T10:24:33;99331.66;;;24.37;40.60
70982;BME280;58640;51.320;9.456;2023-07-13T10:27:19;99320.22;;;24.55;41.53
70982;BME280;58640;51.320;9.456;2023-07-13T10:32:24;99323.19;;;25.30;41.00
70982;BME280;58640;51.320;9.456;2023-07-13T10:34:50;99326.00;;;25.65;37.73
70982;BME280;58640;51.320;9.456;2023-07-13T10:37:26;99333.69;;;25.38;40.25
70982;BME280;58640;51.320;9.456;2023-07-13T10:39:54;99346.84;;;25.21;39.03
70982;BME280;58640;51.320;9.456;2023-07-13T10:42:29;99335.28;;;25.14;37.25
70982;BME280;58640;51.320;9.456;2023-07-13T10:44:56;99332.13;;;24.71;40.42
70982;BME280;58640;51.320;9.456;2023-07-13T10:47:24;99339.03;;;24.73;42.18
70982;BME280;58640;51.320;9.456;2023-07-13T10:49:54;99337.88;;;24.69;39.01
70982;BME280;58640;51.320;9.456;2023-07-13T10:52:41;99336.16;;;24.58;38.63
70982;BME280;58640;51.320;9.456;2023-07-13T10:58:00;99327.19;;;24.73;40.24
70982;BME280;58640;51.320;9.456;2023-07-13T11:00:26;99339.03;;;24.73;37.78
70982;BME280;58640;51.320;9.456;2023-07-13T11:02:59;99334.00;;;24.65;39.84
70982;BME280;58640;51.320;9.456;2023-07-13T11:05:33;99342.88;;;24.77;38.26
70982;BME280;58640;51.320;9.456;2023-07-13T11:08:35;99334.75;;;24.45;42.01
70982;BME280;58640;51.320;9.456;2023-07-13T11:11:03;99341.31;;;24.39;39.92
70982;BME280;58640;51.320;9.456;2023-07-13T11:18:48;99334.69;;;24.35;39.88
70982;BME280;58640;51.320;9.456;2023-07-13T11:21:22;99335.22;;;24.32;37.17
70982;BME280;58640;51.320;9.456;2023-07-13T11:24:01;99340.88;;;24.16;41.16
70982;BME280;58640;51.320;9.456;2023-07-13T11:26:56;99326.88;;;24.17;40.67
70982;BME280;58640;51.320;9.456;2023-07-13T11:29:27;99339.28;;;24.20;38.44
70982;BME280;58640;51.320;9.456;2023-07-13T11:32:01;99340.13;;;24.20;39.97
70982;BME280;58640;51.320;9.456;2023-07-13T11:34:42;99326.69;;;24.34;39.56
70982;BME280;58640;51.320;9.456;2023-07-13T11:37:15;99328.31;;;24.25;41.10
70982;BME280;58640;51.320;9.456;2023-07-13T11:39:44;99336.38;;;24.46;41.12
70982;BME280;58640;51.320;9.456;2023-07-13T11:42:13;99333.09;;;24.49;38.37
70982;BME280;58640;51.320;9.456;2023-07-13T11:44:49;99329.25;;;24.45;39.71
70982;BME280;58640;51.320;9.456;2023-07-13T11:47:18;99337.13;;;24.32;38.00
70982;BME280;58640;51.320;9.456;2023-07-13T11:49:49;99327.13;;;24.11;39.14
70982;BME280;58640;51.320;9.456;2023-07-13T11:55:00;99325.53;;;23.83;40.44
70982;BME280;58640;51.320;9.456;2023-07-13T11:57:29;99334.03;;;23.82;41.29
70982;BME280;58640;51.320;9.456;2023-07-13T11:59:58;99329.09;;;23.79;40.29
70982;BME280;58640;51.320;9.456;2023-07-13T12:04:52;99322.31;;;23.91;39.44
70982;BME280;58640;51.320;9.456;2023-07-13T12:07:19;99325.56;;;23.88;42.40
70982;BME280;58640;51.320;9.456;2023-07-13T12:09:44;99322.63;;;24.00;38.92
70982;BME280;58640;51.320;9.456;2023-07-13T12:12:18;99323.13;;;23.92;39.03
70982;BME280;58640;51.320;9.456;2023-07-13T12:14:44;99323.53;;;23.74;40.04
70982;BME280;58640;51.320;9.456;2023-07-13T12:17:22;99332.28;;;23.66;37.74
70982;BME280;58640;51.320;9.456;2023-07-13T12:19:48;99332.06;;;23.72;38.31
70982;BME280;58640;51.320;9.456;2023-07-13T12:22:16;99340.88;;;23.79;39.17
70982;BME280;58640;51.320;9.456;2023-07-13T12:24:42;99335.91;;;23.76;40.29
70982;BME280;58640;51.320;9.456;2023-07-13T12:27:23;99337.31;;;23.79;41.11
70982;BME280;58640;51.320;9.456;2023-07-13T12:30:01;99344.78;;;23.83;38.72
70982;BME280;58640;51.320;9.456;2023-07-13T12:32:27;99347.44;;;23.73;40.05
70982;BME280;58640;51.320;9.456;2023-07-13T12:34:56;99348.56;;;23.46;40.84
70982;BME280;58640;51.320;9.456;2023-07-13T12:37:22;99347.03;;;23.28;40.95
70982;BME280;58640;51.320;9.456;2023-07-13T12:39:49;99346.91;;;23.18;42.03
70982;BME280;58640;51.320;9.456;2023-07-13T12:42:25;99353.97;;;23.14;41.63
70982;BME280;58640;51.320;9.456;2023-07-13T12:45:03;99352.28;;;23.08;43.14
70982;BME280;58640;51.320;9.456;2023-07-13T12:47:30;99349.91;;;23.17;42.47
70982;BME280;58640;51.320;9.456;2023-07-13T12:49:59;99355.09;;;23.13;42.78
70982;BME280;58640;51.320;9.456;2023-07-13T12:52:33;99351.97;;;23.26;45.65
70982;BME280;58640;51.320;9.456;2023-07-13T12:55:05;99362.84;;;23.48;43.74
70982;BME280;58640;51.320;9.456;2023-07-13T12:57:31;99359.16;;;23.64;39.44
70982;BME280;58640;51.320;9.456;2023-07-13T12:59:56;99360.00;;;23.64;39.02
70982;BME280;58640;51.320;9.456;2023-07-13T13:02:29;99356.41;;;23.64;37.89
70982;BME280;58640;51.320;9.456;2023-07-13T13:04:56;99352.56;;;23.60;39.30
70982;BME280;58640;51.320;9.456;2023-07-13T13:07:23;99364.06;;;23.62;41.29
70982;BME280;58640;51.320;9.456;2023-07-13T13:09:49;99361.91;;;23.64;40.66
70982;BME280;58640;51.320;9.456;2023-07-13T13:12:14;99362.44;;;23.61;41.48
70982;BME280;58640;51.320;9.456;2023-07-13T13:14:40;99361.59;;;23.60;40.80
70982;BME280;58640;51.320;9.456;2023-07-13T13:17:18;99354.03;;;23.72;40.06
70982;BME280;58640;51.320;9.456;2023-07-13T13:19:45;99360.41;;;23.83;40.45
70982;BME280;58640;51.320;9.456;2023-07-13T13:22:11;99370.56;;;23.82;40.53
70982;BME280;58640;51.320;9.456;2023-07-13T13:24:36;99363.94;;;23.78;40.63
70982;BME280;58640;51.320;9.456;2023-07-13T13:27:01;99359.94;;;23.91;40.61
70982;BME280;58640;51.320;9.456;2023-07-13T13:29:27;99371.09;;;23.79;42.24
70982;BME280;58640;51.320;9.456;2023-07-13T13:31:56;99362.38;;;23.87;40.21
70982;BME280;58640;51.320;9.456;2023-07-13T13:34:23;99369.53;;;23.88;40.91
70982;BME280;58640;51.320;9.456;2023-07-13T13:36:49;99364.84;;;23.89;39.32
70982;BME280;58640;51.320;9.456;2023-07-13T13:41:44;99366.53;;;23.90;40.70
70982;BME280;58640;51.320;9.456;2023-07-13T13:44:10;99361.06;;;23.95;41.01
70982;BME280;58640;51.320;9.456;2023-07-13T13:46:36;99371.78;;;23.96;40.27
70982;BME280;58640;51.320;9.456;2023-07-13T13:49:01;99366.06;;;23.98;37.99
70982;BME280;58640;51.320;9.456;2023-07-13T13:51:27;99370.59;;;23.87;39.22